Airfield :
LOGIN :

Register | Disclaimer

   EN    FR    IT 

 










Legend :    VFR   Marginal VFR   IFR   Intensive IFR   Very Intensive IFR
Visi :
Ceiling :
>= 8 km
>= 3000ft
5 to 8 km
1000 to 3000 ft
1500m to 5 km
500 to 1000 ft
800 to 1500m
200 to 500 ft
< 800m
< 200 ft
Symbols :   Thunderstorms  Fog  Heavy snow  Heavy precipitations  Wind > 20 kt
SIGMETs :     Misc.  Thunderstorms  Icing  Turbulence  Mountain Waves  Volcanic Ashes







- Airport Elevation : 41 ft
- IATA code : PFO


LCPH - Pafos Int.

CURRENT METAR :
  • 251600Z 27011KT CAVOK 29/24 Q1009

EXPIRED METARs :
  • 251530Z 27011KT CAVOK 29/24 Q1009
  • 251500Z 28010KT CAVOK 30/24 Q1009
  • 251430Z 28010KT CAVOK 30/24 Q1009
  • 251400Z 27010KT CAVOK 31/24 Q1009
  • 251330Z 27010KT CAVOK 31/25 Q1009

TAF TAF LCPH
Valid from the 25 at 12:00 until the 26 at 12:00 UTC


251130Z 2512/2612 28012KT 9999 FEW020
BECMG 2517/2521 35007KT
BECMG 2607/2611 29014KT
No reported NOTAMs for that airfield.



MET'MAP, your aeronautical weather chart ! - Copyright ORBIFLY December 2007 - Disclaimer

ORBIFLY MET'MAP TEAM :

Programming & Development : Alexandra Zaïnal
Concept & Development : Baudouin d'Aumeries
Co-Development & Prog : Marc-Olivier Méhu
Technical & hardware support : Manuel Goepfert

Contact : metmap@orbifly.com




SOURCES & CREDITS :

   NOAA